Time;durP1;ratioP1;P1;durP2;ratioP2;P2;SDS_P1;SDS_P2;PMS_P1;PMS_P2;Temp;Humidity;BMP_temperature;BMP_pressure;BME280_temperature;BME280_humidity;BME280_pressure;Samples;Min_cycle;Max_cycle;Signal;HPM_P1;HPM_P2
2022/10/27 00:01:02;;;;;;;0.00;0.00;;;11.60;99.90;;;;;;5000859;28;20512;-66
2022/10/27 00:03:28;;;;;;;0.00;0.00;;;11.60;99.90;;;;;;5011924;28;20530;-66
2022/10/27 00:05:53;;;;;;;0.10;0.10;;;11.60;99.90;;;;;;5011697;28;20210;-66
2022/10/27 00:08:20;;;;;;;0.10;0.10;;;11.60;99.90;;;;;;5011842;28;20646;-66
2022/10/27 00:11:05;;;;;;;0.00;0.00;;;11.50;99.90;;;;;;5003982;28;20183;-65
2022/10/27 00:13:31;;;;;;;0.00;0.00;;;11.50;99.90;;;;;;5010218;28;20182;-65
2022/10/27 00:16:03;;;;;;;0.00;0.00;;;11.50;99.90;;;;;;5011811;28;20179;-65
2022/10/27 00:18:29;;;;;;;0.15;0.15;;;11.50;99.90;;;;;;5005923;28;20814;-66
2022/10/27 00:21:04;;;;;;;0.00;0.00;;;11.40;99.90;;;;;;4996447;28;20180;-65
2022/10/27 00:23:30;;;;;;;0.00;0.00;;;11.40;99.90;;;;;;5008109;28;20185;-65
2022/10/27 00:25:57;;;;;;;0.00;0.00;;;11.40;99.90;;;;;;5008031;28;20206;-65
2022/10/27 00:28:23;;;;;;;0.00;0.00;;;11.40;99.90;;;;;;5011327;28;20661;-65
2022/10/27 00:31:04;;;;;;;0.00;0.00;;;11.30;99.90;;;;;;4996956;28;20609;-65
2022/10/27 00:33:30;;;;;;;0.10;0.10;;;11.30;99.90;;;;;;5003686;28;20191;-66
2022/10/27 00:35:55;;;;;;;0.00;0.00;;;11.30;99.90;;;;;;5013699;28;20187;-65
2022/10/27 00:38:22;;;;;;;0.00;0.00;;;11.30;99.90;;;;;;4998845;28;20245;-66
2022/10/27 00:40:48;;;;;;;0.75;0.40;;;11.30;99.90;;;;;;4995806;28;20725;-65
2022/10/27 00:43:32;;;;;;;0.00;0.00;;;11.30;99.90;;;;;;5004932;28;20191;-65
2022/10/27 00:46:18;;;;;;;0.00;0.00;;;11.20;99.90;;;;;;4995633;28;20225;-65
2022/10/27 00:48:43;;;;;;;0.47;0.20;;;11.20;99.90;;;;;;5005447;28;20233;-65
2022/10/27 00:51:13;;;;;;;0.00;0.00;;;11.20;99.90;;;;;;5007054;28;20238;-65
2022/10/27 00:53:39;;;;;;;0.13;0.13;;;11.20;99.90;;;;;;5011681;28;20186;-66
2022/10/27 00:56:05;;;;;;;0.00;0.00;;;11.20;99.90;;;;;;4998320;28;20187;-66
2022/10/27 00:58:32;;;;;;;0.00;0.00;;;11.20;99.90;;;;;;5003295;28;20191;-65
2022/10/27 01:00:58;;;;;;;0.10;0.10;;;11.20;99.90;;;;;;5006685;28;20233;-66
2022/10/27 01:03:23;;;;;;;0.10;0.10;;;11.20;99.90;;;;;;5005042;28;20802;-66
2022/10/27 01:05:51;;;;;;;0.08;0.08;;;11.20;99.90;;;;;;4995565;28;20215;-65
2022/10/27 01:08:16;;;;;;;0.00;0.00;;;11.20;99.90;;;;;;5011060;28;20183;-65
2022/10/27 01:10:42;;;;;;;0.20;0.20;;;11.20;99.90;;;;;;5013278;28;20647;-66
2022/10/27 01:13:08;;;;;;;0.00;0.00;;;11.20;99.90;;;;;;4999609;28;20266;-65
2022/10/27 01:15:55;;;;;;;0.15;0.15;;;11.20;99.90;;;;;;4995424;28;20246;-65
2022/10/27 01:18:37;;;;;;;0.00;0.00;;;11.20;99.90;;;;;;4995038;28;20226;-65
2022/10/27 01:21:30;;;;;;;0.10;0.10;;;11.20;99.90;;;;;;5005620;28;20179;-65
2022/10/27 01:24:46;;;;;;;0.75;0.32;;;11.20;99.90;;;;;;4995238;28;20186;-65
2022/10/27 01:27:23;;;;;;;0.00;0.00;;;11.20;99.90;;;;;;4986373;28;20218;-65
2022/10/27 01:30:02;;;;;;;0.00;0.00;;;11.20;99.90;;;;;;5008416;28;20226;-65
2022/10/27 01:32:43;;;;;;;0.00;0.00;;;11.20;99.90;;;;;;4999250;28;20179;-65
2022/10/27 01:35:30;;;;;;;0.00;0.00;;;11.20;99.90;;;;;;5008269;28;20183;-65
2022/10/27 01:38:20;;;;;;;0.00;0.00;;;11.30;99.90;;;;;;5003315;28;20176;-65
2022/10/27 01:40:58;;;;;;;0.00;0.00;;;11.30;99.90;;;;;;4997517;28;20190;-65
2022/10/27 01:43:27;;;;;;;0.00;0.00;;;11.30;99.90;;;;;;4996674;28;20183;-65
2022/10/27 01:45:54;;;;;;;0.43;0.10;;;11.30;99.90;;;;;;5001369;28;20218;-66
2022/10/27 01:48:20;;;;;;;0.00;0.00;;;11.30;99.90;;;;;;4995757;28;20183;-65
2022/10/27 01:50:46;;;;;;;0.00;0.00;;;11.30;99.90;;;;;;5008217;28;20186;-65
2022/10/27 01:53:12;;;;;;;0.00;0.00;;;11.30;99.90;;;;;;5013072;28;20186;-65
2022/10/27 01:56:00;;;;;;;0.43;0.32;;;11.30;99.90;;;;;;5011691;28;20208;-65
2022/10/27 01:58:55;;;;;;;0.00;0.00;;;11.30;99.90;;;;;;4983332;28;20200;-66
2022/10/27 02:01:42;;;;;;;0.00;0.00;;;11.30;99.90;;;;;;5000136;28;20684;-65
2022/10/27 02:04:14;;;;;;;0.00;0.00;;;11.20;99.90;;;;;;5008978;28;20200;-65
2022/10/27 02:07:15;;;;;;;0.65;0.65;;;11.20;99.90;;;;;;5001231;28;20257;-65
2022/10/27 02:09:59;;;;;;;0.32;0.32;;;11.10;99.90;;;;;;5003853;28;20600;-65
2022/10/27 02:12:31;;;;;;;0.00;0.00;;;11.10;99.90;;;;;;4995059;28;20186;-65
2022/10/27 02:15:00;;;;;;;0.00;0.00;;;11.10;99.90;;;;;;4998987;28;20175;-65
2022/10/27 02:17:31;;;;;;;0.00;0.00;;;11.00;99.90;;;;;;5001769;28;20179;-65
2022/10/27 02:19:59;;;;;;;0.10;0.10;;;11.00;99.90;;;;;;5013209;28;20178;-66
2022/10/27 02:22:28;;;;;;;0.00;0.00;;;10.90;99.90;;;;;;5008313;28;20262;-65
2022/10/27 02:24:54;;;;;;;0.00;0.00;;;11.00;99.90;;;;;;4997300;28;20222;-65
2022/10/27 02:27:42;;;;;;;0.10;0.10;;;11.00;99.90;;;;;;5011115;28;20175;-65
2022/10/27 02:30:09;;;;;;;2.90;0.17;;;11.00;99.90;;;;;;4996571;28;20618;-65
2022/10/27 02:32:35;;;;;;;0.00;0.00;;;11.00;99.90;;;;;;4994557;28;20199;-66
2022/10/27 02:35:01;;;;;;;0.00;0.00;;;11.00;99.90;;;;;;4992397;28;20209;-66
2022/10/27 02:37:37;;;;;;;0.00;0.00;;;10.90;99.90;;;;;;5010560;28;20178;-66
2022/10/27 02:40:03;;;;;;;0.15;0.10;;;10.90;99.90;;;;;;5004252;28;20167;-65
2022/10/27 02:42:29;;;;;;;0.00;0.00;;;10.90;99.90;;;;;;4998194;28;20535;-66
2022/10/27 02:44:54;;;;;;;0.08;0.08;;;10.90;99.90;;;;;;5001120;28;20199;-65
2022/10/27 02:47:20;;;;;;;0.00;0.00;;;10.90;99.90;;;;;;4996941;28;20539;-66
2022/10/27 02:49:46;;;;;;;0.00;0.00;;;10.80;99.90;;;;;;4999730;28;20179;-66
2022/10/27 02:52:12;;;;;;;0.00;0.00;;;10.80;99.90;;;;;;4993702;28;20196;-66
2022/10/27 02:54:38;;;;;;;0.00;0.00;;;10.80;99.90;;;;;;4999094;28;20642;-66
2022/10/27 02:57:04;;;;;;;0.30;0.30;;;10.80;99.90;;;;;;5007980;28;20262;-66
2022/10/27 02:59:29;;;;;;;0.10;0.10;;;10.80;99.90;;;;;;5009180;28;20262;-66
2022/10/27 03:01:55;;;;;;;0.00;0.00;;;10.80;99.90;;;;;;4997125;28;20555;-66
2022/10/27 03:04:20;;;;;;;0.25;0.20;;;10.80;99.90;;;;;;4994954;28;20589;-65
2022/10/27 03:06:46;;;;;;;0.08;0.08;;;10.80;99.90;;;;;;5005148;28;20207;-65
2022/10/27 03:09:11;;;;;;;0.00;0.00;;;10.80;99.90;;;;;;4997370;28;20257;-65
2022/10/27 03:11:37;;;;;;;0.00;0.00;;;10.70;99.90;;;;;;5009668;28;20262;-66
2022/10/27 03:14:03;;;;;;;0.00;0.00;;;10.70;99.90;;;;;;5001474;28;20179;-66
2022/10/27 03:16:28;;;;;;;0.00;0.00;;;10.70;99.90;;;;;;5007801;28;20549;-66
2022/10/27 03:18:54;;;;;;;0.00;0.00;;;10.70;99.90;;;;;;5005812;28;20233;-66
2022/10/27 03:21:20;;;;;;;0.00;0.00;;;10.70;99.90;;;;;;5001937;28;20211;-65
2022/10/27 03:23:45;;;;;;;0.00;0.00;;;10.70;99.90;;;;;;4999220;28;20179;-65
2022/10/27 03:26:11;;;;;;;0.00;0.00;;;10.70;99.90;;;;;;4997812;28;20678;-65
2022/10/27 03:28:36;;;;;;;0.00;0.00;;;10.80;99.90;;;;;;5009960;28;20209;-65
2022/10/27 03:31:03;;;;;;;0.08;0.08;;;10.80;99.90;;;;;;4990175;28;20198;-65
2022/10/27 03:33:29;;;;;;;0.00;0.00;;;10.80;99.90;;;;;;4981163;28;20188;-65
2022/10/27 03:35:54;;;;;;;0.17;0.17;;;10.90;99.90;;;;;;4985338;28;20234;-65
2022/10/27 03:38:20;;;;;;;0.00;0.00;;;10.90;99.90;;;;;;4985817;28;20184;-65
2022/10/27 03:40:46;;;;;;;0.00;0.00;;;10.90;99.90;;;;;;4983700;28;20726;-64
2022/10/27 03:43:12;;;;;;;0.00;0.00;;;10.90;99.90;;;;;;4992032;28;20211;-64
2022/10/27 03:45:37;;;;;;;0.00;0.00;;;10.90;99.90;;;;;;4982352;28;20223;-64
2022/10/27 03:48:11;;;;;;;0.00;0.00;;;10.90;99.90;;;;;;4980503;28;20176;-65
2022/10/27 03:50:37;;;;;;;0.00;0.00;;;10.90;99.90;;;;;;4987782;28;20183;-65
2022/10/27 03:53:03;;;;;;;0.00;0.00;;;10.90;99.90;;;;;;4973163;28;20187;-65
2022/10/27 03:55:30;;;;;;;0.00;0.00;;;10.90;99.90;;;;;;4971968;28;20263;-65
2022/10/27 03:57:56;;;;;;;0.00;0.00;;;10.80;99.90;;;;;;4970943;28;20188;-66
2022/10/27 04:00:22;;;;;;;0.10;0.10;;;10.80;99.90;;;;;;4984912;28;20188;-66
2022/10/27 04:02:48;;;;;;;0.00;0.00;;;10.80;99.90;;;;;;4989563;28;20179;-65
2022/10/27 04:05:13;;;;;;;0.00;0.00;;;10.90;99.90;;;;;;4991397;28;20298;-65
2022/10/27 04:07:39;;;;;;;0.20;0.20;;;10.80;99.90;;;;;;4991295;28;20183;-66
2022/10/27 04:10:05;;;;;;;0.00;0.00;;;10.80;99.90;;;;;;4990410;28;20541;-65
2022/10/27 04:12:31;;;;;;;0.05;0.05;;;10.80;99.90;;;;;;4972344;28;20184;-64
2022/10/27 04:14:56;;;;;;;0.10;0.10;;;10.80;99.90;;;;;;4973091;28;20188;-65
2022/10/27 04:17:22;;;;;;;0.55;0.28;;;10.80;99.90;;;;;;4982326;28;20191;-66
2022/10/27 04:19:48;;;;;;;0.00;0.00;;;10.80;99.90;;;;;;4978473;28;20195;-65
2022/10/27 04:22:13;;;;;;;0.00;0.00;;;10.90;99.90;;;;;;4985385;28;20183;-64
2022/10/27 04:24:39;;;;;;;0.10;0.10;;;10.80;99.90;;;;;;4983316;28;20182;-64
2022/10/27 04:27:08;;;;;;;0.00;0.00;;;10.90;99.90;;;;;;4991268;28;20270;-67
2022/10/27 04:29:34;;;;;;;0.00;0.00;;;10.90;99.90;;;;;;4956092;28;1238085;-66
2022/10/27 04:31:59;;;;;;;0.80;0.30;;;10.90;99.90;;;;;;5010671;28;20209;-66
2022/10/27 04:34:25;;;;;;;0.00;0.00;;;10.80;99.90;;;;;;5011669;28;20179;-64
2022/10/27 04:36:50;;;;;;;0.30;0.30;;;10.80;99.90;;;;;;5009717;28;20660;-63
2022/10/27 04:39:16;;;;;;;0.10;0.10;;;10.80;99.90;;;;;;5009990;28;20194;-65
2022/10/27 04:41:42;;;;;;;0.00;0.00;;;10.70;99.90;;;;;;5011503;28;20183;-66
2022/10/27 04:44:08;;;;;;;0.00;0.00;;;10.70;99.90;;;;;;4998396;28;20951;-63
2022/10/27 04:46:34;;;;;;;0.00;0.00;;;10.70;99.90;;;;;;4991902;28;20227;-65
2022/10/27 04:48:59;;;;;;;0.00;0.00;;;10.70;99.90;;;;;;5004208;28;20186;-66
2022/10/27 04:51:25;;;;;;;0.32;0.20;;;10.70;99.90;;;;;;5011028;28;20183;-66
2022/10/27 04:53:50;;;;;;;0.00;0.00;;;10.60;99.90;;;;;;5011531;28;20642;-66
2022/10/27 04:56:16;;;;;;;0.08;0.08;;;10.60;99.90;;;;;;5011430;28;20222;-66
2022/10/27 04:58:42;;;;;;;0.10;0.10;;;10.60;99.90;;;;;;5011541;28;20548;-66
2022/10/27 05:01:09;;;;;;;0.45;0.45;;;10.60;99.90;;;;;;5011334;28;20167;-66
2022/10/27 05:03:35;;;;;;;0.15;0.15;;;10.70;99.90;;;;;;5010148;28;20275;-66
2022/10/27 05:06:01;;;;;;;0.00;0.00;;;10.60;99.90;;;;;;5013021;28;20301;-66
2022/10/27 05:08:26;;;;;;;0.00;0.00;;;10.70;99.90;;;;;;5014789;28;20217;-66
2022/10/27 05:10:52;;;;;;;0.00;0.00;;;10.70;99.90;;;;;;5014905;28;20187;-66
2022/10/27 05:13:17;;;;;;;0.10;0.10;;;10.70;99.90;;;;;;5014803;28;20171;-66
2022/10/27 05:15:43;;;;;;;0.00;0.00;;;10.80;99.90;;;;;;5014985;28;20210;-67
2022/10/27 05:18:08;;;;;;;0.10;0.10;;;10.80;99.90;;;;;;5014699;28;20207;-66
2022/10/27 05:20:34;;;;;;;0.00;0.00;;;10.80;99.90;;;;;;5014710;28;20281;-66
2022/10/27 05:22:59;;;;;;;0.20;0.15;;;10.80;99.90;;;;;;5014785;28;20258;-66
2022/10/27 05:25:25;;;;;;;0.47;0.43;;;10.80;99.90;;;;;;5014466;28;20309;-66
2022/10/27 05:27:50;;;;;;;0.00;0.00;;;10.80;99.90;;;;;;5014508;28;20228;-67
2022/10/27 05:30:16;;;;;;;0.20;0.20;;;10.80;99.90;;;;;;5014337;28;20223;-66
2022/10/27 05:32:42;;;;;;;0.30;0.30;;;10.80;99.90;;;;;;5014430;28;20198;-66
2022/10/27 05:35:08;;;;;;;0.00;0.00;;;10.80;99.90;;;;;;5014343;28;20178;-67
2022/10/27 05:37:33;;;;;;;0.15;0.15;;;10.70;99.90;;;;;;5014422;28;20310;-66
2022/10/27 05:40:00;;;;;;;0.40;0.40;;;10.70;99.90;;;;;;5014387;28;20667;-66
2022/10/27 05:42:25;;;;;;;0.00;0.00;;;10.70;99.90;;;;;;5014305;28;20183;-66
2022/10/27 05:44:51;;;;;;;0.00;0.00;;;10.70;99.90;;;;;;5014270;28;20273;-66
2022/10/27 05:47:16;;;;;;;0.00;0.00;;;10.70;99.90;;;;;;5014191;28;20187;-66
2022/10/27 05:49:42;;;;;;;0.00;0.00;;;10.70;99.90;;;;;;5014212;28;20185;-66
2022/10/27 05:52:08;;;;;;;0.05;0.05;;;10.70;99.90;;;;;;5014133;28;20249;-66
2022/10/27 05:54:33;;;;;;;0.00;0.00;;;10.70;99.90;;;;;;5014160;28;20658;-66
2022/10/27 05:56:59;;;;;;;0.00;0.00;;;10.70;99.90;;;;;;5013967;28;20182;-66
2022/10/27 05:59:24;;;;;;;0.00;0.00;;;10.70;99.90;;;;;;5013934;28;20185;-66
2022/10/27 06:01:50;;;;;;;0.00;0.00;;;10.70;99.90;;;;;;5014030;28;20198;-66
2022/10/27 06:04:15;;;;;;;0.10;0.03;;;10.70;99.90;;;;;;5013951;28;20179;-66
2022/10/27 06:06:41;;;;;;;0.00;0.00;;;10.70;99.90;;;;;;5013779;28;20227;-66
2022/10/27 06:09:06;;;;;;;0.25;0.25;;;10.70;99.90;;;;;;5013756;28;20201;-66
2022/10/27 06:11:32;;;;;;;0.00;0.00;;;10.80;99.90;;;;;;5013710;28;20178;-66
2022/10/27 06:13:57;;;;;;;0.00;0.00;;;10.70;99.90;;;;;;5013676;28;20665;-66
2022/10/27 06:16:26;;;;;;;0.25;0.25;;;10.80;99.90;;;;;;5013265;28;20182;-66
2022/10/27 06:18:52;;;;;;;0.00;0.00;;;10.80;99.90;;;;;;5013279;28;20228;-66
2022/10/27 06:21:21;;;;;;;0.25;0.25;;;10.80;99.90;;;;;;5013408;28;20545;-66
2022/10/27 06:23:47;;;;;;;0.00;0.00;;;10.80;99.90;;;;;;5013644;28;20174;-66
2022/10/27 06:26:13;;;;;;;0.00;0.00;;;10.80;99.90;;;;;;5013410;28;20210;-67
2022/10/27 06:28:39;;;;;;;0.00;0.00;;;10.80;99.90;;;;;;5009735;28;20190;-67
2022/10/27 06:31:04;;;;;;;0.00;0.00;;;10.90;99.90;;;;;;5013406;28;20189;-66
2022/10/27 06:33:30;;;;;;;0.10;0.10;;;10.90;99.90;;;;;;5013252;28;20665;-67
2022/10/27 06:35:56;;;;;;;0.00;0.00;;;11.00;99.90;;;;;;5013389;28;20677;-67
2022/10/27 06:38:21;;;;;;;0.10;0.10;;;11.00;99.90;;;;;;5013118;28;20225;-67
2022/10/27 06:40:47;;;;;;;0.15;0.15;;;11.00;99.90;;;;;;5013391;28;20183;-67
2022/10/27 06:43:12;;;;;;;0.10;0.10;;;11.10;99.90;;;;;;5013274;28;20183;-66
2022/10/27 06:45:38;;;;;;;0.00;0.00;;;11.10;99.90;;;;;;5012985;28;20217;-67
2022/10/27 06:48:06;;;;;;;1.08;0.28;;;11.20;99.90;;;;;;5013122;28;20634;-66
2022/10/27 06:50:32;;;;;;;0.00;0.00;;;11.20;99.90;;;;;;5013226;28;20676;-67
2022/10/27 06:52:58;;;;;;;0.00;0.00;;;11.20;99.90;;;;;;5013025;28;20194;-66
2022/10/27 06:55:24;;;;;;;0.00;0.00;;;11.30;99.90;;;;;;5013201;28;20178;-66
2022/10/27 06:57:49;;;;;;;0.35;0.28;;;11.40;99.90;;;;;;5012943;28;20210;-66
2022/10/27 07:00:15;;;;;;;0.03;0.03;;;11.40;99.90;;;;;;5012842;28;20218;-66
2022/10/27 07:02:41;;;;;;;0.00;0.00;;;11.50;99.90;;;;;;5012933;28;20182;-66
2022/10/27 07:05:07;;;;;;;0.05;0.05;;;11.70;99.90;;;;;;5012694;28;20699;-66
2022/10/27 07:07:33;;;;;;;0.28;0.20;;;11.90;99.90;;;;;;5012826;28;20187;-66
2022/10/27 07:09:59;;;;;;;0.00;0.00;;;12.30;99.90;;;;;;5012767;28;20272;-66
2022/10/27 07:12:25;;;;;;;0.00;0.00;;;13.00;99.90;;;;;;5012714;28;20199;-66
2022/10/27 07:14:50;;;;;;;0.00;0.00;;;13.90;99.90;;;;;;5012817;28;20199;-66
2022/10/27 07:17:16;;;;;;;0.00;0.00;;;14.70;99.90;;;;;;5012594;28;20272;-67
2022/10/27 07:19:41;;;;;;;0.00;0.00;;;15.70;99.90;;;;;;5012553;28;20183;-67
2022/10/27 07:22:07;;;;;;;0.00;0.00;;;16.50;99.90;;;;;;5012532;28;20249;-66
2022/10/27 07:24:32;;;;;;;0.40;0.40;;;17.20;99.90;;;;;;5012672;28;20185;-67
2022/10/27 07:26:58;;;;;;;0.00;0.00;;;17.70;99.90;;;;;;5012369;28;20178;-67
2022/10/27 07:29:23;;;;;;;0.13;0.05;;;18.00;99.90;;;;;;5011919;28;20322;-67
2022/10/27 07:31:49;;;;;;;0.00;0.00;;;18.40;99.90;;;;;;5012417;28;20253;-67
2022/10/27 07:34:15;;;;;;;0.05;0.05;;;18.80;99.90;;;;;;5012278;28;20198;-67
2022/10/27 07:36:40;;;;;;;0.00;0.00;;;19.10;99.90;;;;;;5012387;28;20178;-67
2022/10/27 07:39:06;;;;;;;0.00;0.00;;;19.30;99.90;;;;;;5012277;28;20183;-67
2022/10/27 07:41:32;;;;;;;0.00;0.00;;;19.40;99.90;;;;;;5011115;28;20256;-66
2022/10/27 07:43:57;;;;;;;0.10;0.10;;;19.30;99.90;;;;;;5012300;28;20215;-66
2022/10/27 07:46:23;;;;;;;0.00;0.00;;;19.30;99.90;;;;;;5012078;28;20693;-67
2022/10/27 07:48:48;;;;;;;0.00;0.00;;;19.40;99.90;;;;;;5012360;28;20171;-67
2022/10/27 07:51:14;;;;;;;0.00;0.00;;;19.50;99.90;;;;;;5010945;28;20182;-67
2022/10/27 07:53:40;;;;;;;0.00;0.00;;;19.60;99.90;;;;;;5012105;28;20175;-67
2022/10/27 07:56:05;;;;;;;0.00;0.00;;;19.70;99.90;;;;;;5012102;28;20214;-67
2022/10/27 07:58:31;;;;;;;0.25;0.10;;;19.90;99.90;;;;;;5012026;28;20175;-67
2022/10/27 08:00:58;;;;;;;0.00;0.00;;;19.80;99.90;;;;;;5012226;28;20182;-67
2022/10/27 08:03:28;;;;;;;0.00;0.00;;;19.70;99.90;;;;;;5011987;28;20182;-67
2022/10/27 08:05:54;;;;;;;0.00;0.00;;;19.40;99.90;;;;;;5012038;28;20222;-67
2022/10/27 08:08:20;;;;;;;0.10;0.10;;;19.30;99.90;;;;;;5011874;28;20207;-66
2022/10/27 08:10:48;;;;;;;0.00;0.00;;;19.20;99.90;;;;;;5012004;28;20178;-66
2022/10/27 08:13:14;;;;;;;0.22;0.22;;;19.10;99.90;;;;;;5011827;28;20673;-67
2022/10/27 08:15:40;;;;;;;0.00;0.00;;;18.90;99.90;;;;;;5012001;28;20182;-67
2022/10/27 08:18:08;;;;;;;0.00;0.00;;;18.80;99.90;;;;;;5011845;28;20206;-67
2022/10/27 08:20:37;;;;;;;0.10;0.10;;;18.80;99.90;;;;;;5011926;28;20182;-67
2022/10/27 08:23:08;;;;;;;0.00;0.00;;;18.70;99.90;;;;;;5011863;28;20268;-67
2022/10/27 08:25:33;;;;;;;0.00;0.00;;;18.70;99.90;;;;;;5011810;28;20535;-67
2022/10/27 08:27:59;;;;;;;0.00;0.00;;;18.80;99.90;;;;;;5011702;28;20234;-66
2022/10/27 08:30:27;;;;;;;0.00;0.00;;;18.80;99.90;;;;;;5011684;28;20237;-66
2022/10/27 08:32:58;;;;;;;0.00;0.00;;;18.90;99.90;;;;;;5011801;28;20167;-67
2022/10/27 08:35:25;;;;;;;0.00;0.00;;;19.00;99.90;;;;;;5011718;28;20171;-66
2022/10/27 08:38:08;;;;;;;0.00;0.00;;;19.10;99.90;;;;;;5011988;28;20628;-67
2022/10/27 08:40:45;;;;;;;0.00;0.00;;;19.20;99.90;;;;;;5012783;28;20259;-67
2022/10/27 08:43:31;;;;;;;0.00;0.00;;;19.40;99.90;;;;;;5015581;28;20248;-67
2022/10/27 08:46:35;;;;;;;0.10;0.08;;;19.50;99.90;;;;;;5014961;28;20234;-67
2022/10/27 08:49:04;;;;;;;0.00;0.00;;;19.60;99.90;;;;;;5008904;28;20316;-67
2022/10/27 08:51:31;;;;;;;0.03;0.03;;;19.70;99.90;;;;;;5015196;28;20670;-67
2022/10/27 08:53:58;;;;;;;0.00;0.00;;;19.70;99.90;;;;;;5015295;28;20634;-67
2022/10/27 08:56:29;;;;;;;0.00;0.00;;;19.70;99.90;;;;;;5015151;28;20538;-67
2022/10/27 08:58:55;;;;;;;0.10;0.10;;;19.80;99.90;;;;;;5015383;28;20190;-67
2022/10/27 09:01:46;;;;;;;0.10;0.10;;;20.00;99.90;;;;;;5015070;28;20183;-67
2022/10/27 09:04:35;;;;;;;0.00;0.00;;;20.10;99.90;;;;;;5015100;28;20696;-67
2022/10/27 09:07:33;;;;;;;0.00;0.00;;;20.20;99.90;;;;;;5014856;28;20229;-67
2022/10/27 09:10:05;;;;;;;0.00;0.00;;;20.30;99.90;;;;;;5015000;28;20179;-67
2022/10/27 09:12:46;;;;;;;0.00;0.00;;;20.30;99.90;;;;;;5014981;28;20626;-67
2022/10/27 09:15:21;;;;;;;0.00;0.00;;;20.30;99.90;;;;;;5014991;28;20258;-67
2022/10/27 09:17:57;;;;;;;0.00;0.00;;;20.20;99.90;;;;;;5014833;28;20182;-67
2022/10/27 09:20:44;;;;;;;0.00;0.00;;;20.20;99.90;;;;;;5014762;28;20213;-67
2022/10/27 09:23:16;;;;;;;0.43;0.43;;;20.20;99.90;;;;;;5014673;28;20225;-67
2022/10/27 09:25:42;;;;;;;0.00;0.00;;;20.20;99.90;;;;;;5014606;28;20226;-67
2022/10/27 09:28:31;;;;;;;0.05;0.05;;;20.20;99.90;;;;;;5014515;28;20175;-67
2022/10/27 09:30:58;;;;;;;0.00;0.00;;;20.20;99.90;;;;;;5014494;28;20995;-67
2022/10/27 09:33:29;;;;;;;0.00;0.00;;;20.20;99.90;;;;;;5014567;28;20233;-67
2022/10/27 09:35:55;;;;;;;0.00;0.00;;;20.20;99.90;;;;;;5014529;28;20183;-67
2022/10/27 09:38:23;;;;;;;0.00;0.00;;;20.20;99.90;;;;;;5014405;28;20217;-67
2022/10/27 09:40:51;;;;;;;0.00;0.00;;;20.20;99.90;;;;;;5014474;28;20650;-67
2022/10/27 09:43:19;;;;;;;0.00;0.00;;;20.50;99.90;;;;;;5014286;28;20194;-67
2022/10/27 09:45:50;;;;;;;0.17;0.17;;;20.60;99.90;;;;;;5014353;28;20313;-67
2022/10/27 09:48:21;;;;;;;0.00;0.00;;;20.70;99.90;;;;;;5014481;28;20186;-67
2022/10/27 09:51:11;;;;;;;0.00;0.00;;;20.80;99.90;;;;;;5014327;28;20190;-67
2022/10/27 09:53:43;;;;;;;0.05;0.05;;;20.80;99.90;;;;;;5014225;28;20186;-67
2022/10/27 09:56:17;;;;;;;0.00;0.00;;;20.90;99.90;;;;;;5014087;28;20273;-67
2022/10/27 09:59:11;;;;;;;0.00;0.00;;;21.00;99.90;;;;;;5014113;28;20182;-67
2022/10/27 10:01:47;;;;;;;0.22;0.20;;;21.10;99.90;;;;;;5013857;28;20217;-67
2022/10/27 10:04:22;;;;;;;0.00;0.00;;;21.30;99.90;;;;;;5013908;28;20205;-67
2022/10/27 10:06:59;;;;;;;0.00;0.00;;;21.50;99.90;;;;;;5013922;28;20305;-67
2022/10/27 10:09:28;;;;;;;0.00;0.00;;;21.60;99.90;;;;;;5013786;28;20270;-67
2022/10/27 10:12:15;;;;;;;0.00;0.00;;;21.80;99.90;;;;;;5013853;28;20182;-66
2022/10/27 10:14:40;;;;;;;0.00;0.00;;;21.80;99.90;;;;;;5013683;28;20225;-66
2022/10/27 10:17:24;;;;;;;0.00;0.00;;;21.90;99.90;;;;;;5013711;28;20183;-66
2022/10/27 10:19:51;;;;;;;0.00;0.00;;;22.00;99.90;;;;;;5013792;28;20190;-66
2022/10/27 10:22:30;;;;;;;0.00;0.00;;;22.10;99.90;;;;;;5013693;28;20178;-67
2022/10/27 10:25:03;;;;;;;0.00;0.00;;;22.30;99.90;;;;;;5013591;28;20175;-66
2022/10/27 10:27:33;;;;;;;0.00;0.00;;;22.30;99.90;;;;;;5013401;28;20199;-66
2022/10/27 10:30:02;;;;;;;0.00;0.00;;;22.40;99.90;;;;;;5013137;28;20297;-67
2022/10/27 10:32:32;;;;;;;0.05;0.05;;;22.50;99.90;;;;;;5013358;28;20174;-67
2022/10/27 10:34:59;;;;;;;0.08;0.08;;;22.60;99.90;;;;;;5013394;28;20664;-66
2022/10/27 10:37:45;;;;;;;0.00;0.00;;;22.50;99.90;;;;;;5013281;28;20194;-66
2022/10/27 10:40:15;;;;;;;0.00;0.00;;;22.60;99.90;;;;;;5013243;28;20182;-67
2022/10/27 10:42:45;;;;;;;0.00;0.00;;;22.80;99.90;;;;;;5013287;28;20266;-67
2022/10/27 10:45:18;;;;;;;0.00;0.00;;;22.90;99.70;;;;;;5013165;28;20206;-67
2022/10/27 10:47:54;;;;;;;0.10;0.08;;;23.10;99.60;;;;;;5013238;28;20175;-67
2022/10/27 10:50:19;;;;;;;0.03;0.03;;;23.30;99.40;;;;;;5013091;28;20233;-67
2022/10/27 10:52:53;;;;;;;0.05;0.05;;;23.50;99.10;;;;;;5013163;28;20696;-66
2022/10/27 10:55:25;;;;;;;0.05;0.05;;;23.50;98.30;;;;;;5012845;28;20249;-67
2022/10/27 10:57:54;;;;;;;0.00;0.00;;;23.50;97.80;;;;;;5013161;28;20197;-67
2022/10/27 11:00:21;;;;;;;0.10;0.08;;;23.40;98.30;;;;;;5012839;28;20179;-66
2022/10/27 11:03:00;;;;;;;0.00;0.00;;;23.40;97.70;;;;;;5012720;28;20186;-66
2022/10/27 11:05:33;;;;;;;0.00;0.00;;;23.40;98.40;;;;;;5012738;28;20669;-67
2022/10/27 11:07:59;;;;;;;0.30;0.30;;;23.50;97.90;;;;;;5012852;28;20178;-66
2022/10/27 11:10:30;;;;;;;0.00;0.00;;;23.50;98.00;;;;;;5012870;28;20258;-67
2022/10/27 11:13:19;;;;;;;0.00;0.00;;;23.60;97.90;;;;;;5012891;28;20209;-67
2022/10/27 11:15:54;;;;;;;0.08;0.08;;;23.70;97.50;;;;;;5012386;28;20198;-67
2022/10/27 11:18:23;;;;;;;0.00;0.00;;;23.80;97.40;;;;;;5012581;28;20580;-67
2022/10/27 11:20:53;;;;;;;0.00;0.00;;;24.00;97.20;;;;;;5012629;28;20646;-67
2022/10/27 11:23:25;;;;;;;0.00;0.00;;;24.20;96.60;;;;;;5012512;28;20175;-67
2022/10/27 11:25:52;;;;;;;0.00;0.00;;;24.20;96.30;;;;;;5012535;28;20257;-67
2022/10/27 11:29:02;;;;;;;0.00;0.00;;;24.40;96.70;;;;;;5012392;28;20736;-67
2022/10/27 11:31:37;;;;;;;0.00;0.00;;;24.50;95.30;;;;;;5010200;28;20194;-67
2022/10/27 11:34:26;;;;;;;0.00;0.00;;;24.70;95.30;;;;;;5012495;28;20499;-67
2022/10/27 11:37:05;;;;;;;0.00;0.00;;;24.90;95.20;;;;;;5012469;28;20610;-67
2022/10/27 11:39:38;;;;;;;0.00;0.00;;;24.90;94.70;;;;;;5012250;28;20637;-67
2022/10/27 11:42:19;;;;;;;0.00;0.00;;;24.80;94.70;;;;;;5012360;28;20187;-67
2022/10/27 11:45:11;;;;;;;0.00;0.00;;;24.70;94.80;;;;;;5011052;28;20244;-67
2022/10/27 11:48:08;;;;;;;1.85;1.02;;;24.60;95.00;;;;;;5012282;28;20186;-67
2022/10/27 11:50:47;;;;;;;0.00;0.00;;;24.80;95.00;;;;;;5010652;28;20519;-67
2022/10/27 11:53:13;;;;;;;0.00;0.00;;;24.90;94.50;;;;;;5012153;28;20182;-67
2022/10/27 11:56:10;;;;;;;0.10;0.10;;;25.00;94.10;;;;;;5012142;28;20175;-66
2022/10/27 11:58:56;;;;;;;0.05;0.05;;;24.80;93.30;;;;;;5012258;28;20220;-67
2022/10/27 12:01:52;;;;;;;0.20;0.20;;;24.70;93.60;;;;;;5012007;28;20174;-66
2022/10/27 12:04:32;;;;;;;0.00;0.00;;;24.70;93.80;;;;;;5007654;28;20674;-66
2022/10/27 12:07:03;;;;;;;0.00;0.00;;;24.60;93.60;;;;;;5011919;28;20214;-67
2022/10/27 12:09:38;;;;;;;0.00;0.00;;;24.70;93.60;;;;;;5012013;28;20863;-67
2022/10/27 12:12:12;;;;;;;0.00;0.00;;;24.60;93.10;;;;;;5012098;28;20228;-67
2022/10/27 12:15:09;;;;;;;0.00;0.00;;;24.50;93.50;;;;;;5011933;28;20182;-66
2022/10/27 12:17:44;;;;;;;0.20;0.20;;;24.50;93.70;;;;;;5015974;28;20209;-67
2022/10/27 12:20:16;;;;;;;0.00;0.00;;;24.40;93.40;;;;;;5015977;28;20181;-66
2022/10/27 12:22:51;;;;;;;0.00;0.00;;;24.30;93.80;;;;;;5015922;28;20191;-66
2022/10/27 12:25:23;;;;;;;0.00;0.00;;;24.30;94.10;;;;;;5015651;28;20209;-66
2022/10/27 12:27:53;;;;;;;0.00;0.00;;;24.30;93.80;;;;;;5015687;28;20179;-67
2022/10/27 12:30:20;;;;;;;0.00;0.00;;;24.40;93.90;;;;;;5015456;28;20226;-67
2022/10/27 12:32:51;;;;;;;0.00;0.00;;;24.40;93.90;;;;;;5015742;28;20189;-66
2022/10/27 12:35:27;;;;;;;0.00;0.00;;;24.40;93.80;;;;;;5015559;28;20712;-66
2022/10/27 12:38:30;;;;;;;0.90;0.52;;;24.40;93.90;;;;;;5015722;28;20248;-67
2022/10/27 12:41:07;;;;;;;0.22;0.13;;;24.40;93.70;;;;;;5009920;28;20617;-67
2022/10/27 12:43:41;;;;;;;0.80;0.55;;;24.40;93.80;;;;;;5015542;28;20174;-67
2022/10/27 12:46:12;;;;;;;0.00;0.00;;;24.40;93.60;;;;;;5015467;28;20210;-67
2022/10/27 12:49:03;;;;;;;0.00;0.00;;;24.40;93.50;;;;;;5015457;28;20178;-67
2022/10/27 12:51:50;;;;;;;0.00;0.00;;;24.40;93.40;;;;;;5015395;28;20207;-66
2022/10/27 12:54:41;;;;;;;0.00;0.00;;;24.30;93.10;;;;;;5015301;28;20544;-67
2022/10/27 12:57:33;;;;;;;0.00;0.00;;;24.30;93.10;;;;;;5015237;28;20222;-67
2022/10/27 13:00:12;;;;;;;0.10;0.10;;;24.30;93.10;;;;;;5015135;28;20182;-67
2022/10/27 13:02:50;;;;;;;0.70;0.20;;;24.20;93.40;;;;;;5015330;28;20175;-67
2022/10/27 13:05:42;;;;;;;0.00;0.00;;;24.10;92.70;;;;;;5015001;28;20205;-67
2022/10/27 13:08:22;;;;;;;0.00;0.00;;;24.00;93.10;;;;;;5015006;28;20277;-67